Time;durP1;ratioP1;P1;durP2;ratioP2;P2;SDS_P1;SDS_P2;PMS_P1;PMS_P2;Temp;Humidity;BMP_temperature;BMP_pressure;BME280_temperature;BME280_humidity;BME280_pressure;Samples;Min_cycle;Max_cycle;Signal;HPM_P1;HPM_P2
2020/12/07 00:00:22;;;;;;;17.70;12.28;;;;;;;4.32;71.47;95527.02;1764580;81;21109;-88
2020/12/07 00:02:50;;;;;;;20.50;11.33;;;;;;;4.35;71.81;95518.97;1747715;81;21110;-88
2020/12/07 00:05:16;;;;;;;15.65;9.05;;;;;;;4.45;72.27;95518.31;1749501;81;21118;-88
2020/12/07 00:07:42;;;;;;;12.43;7.55;;;;;;;4.57;71.99;95509.77;1739448;81;22043;-88
2020/12/07 00:10:08;;;;;;;9.10;6.40;;;;;;;4.88;71.96;95505.47;1765635;81;21118;-88
2020/12/07 00:12:36;;;;;;;4.55;3.35;;;;;;;5.19;71.70;95513.17;1716528;82;21340;-88
2020/12/07 00:15:04;;;;;;;8.13;5.70;;;;;;;5.61;71.42;95504.23;1759741;81;21343;-87
2020/12/07 00:17:30;;;;;;;6.42;4.37;;;;;;;6.10;71.02;95501.29;1742194;81;21098;-88
2020/12/07 00:19:56;;;;;;;5.87;4.33;;;;;;;6.24;70.23;95508.26;1740679;81;21360;-88
2020/12/07 00:22:28;;;;;;;7.17;5.65;;;;;;;6.50;69.43;95514.27;1750617;81;21507;-88
2020/12/07 00:24:56;;;;;;;5.87;4.58;;;;;;;6.77;69.15;95522.69;1748756;81;21117;-87
2020/12/07 00:27:26;;;;;;;12.25;9.20;;;;;;;6.86;68.80;95509.21;1753784;81;21153;-88
2020/12/07 00:29:52;;;;;;;14.95;9.13;;;;;;;6.84;67.82;95513.27;1747624;81;21142;-89
2020/12/07 00:32:19;;;;;;;13.70;8.68;;;;;;;6.83;67.75;95514.25;1747133;81;21122;-88
2020/12/07 00:34:46;;;;;;;13.62;9.80;;;;;;;6.75;67.41;95510.95;1736095;81;21129;-89
2020/12/07 00:37:12;;;;;;;11.08;7.75;;;;;;;6.68;67.44;95502.33;1740967;81;21137;-87
2020/12/07 00:39:38;;;;;;;15.70;10.48;;;;;;;6.68;67.17;95501.84;1741365;81;21457;-88
2020/12/07 00:42:05;;;;;;;22.10;13.18;;;;;;;6.52;67.21;95505.39;1738344;81;21164;-88
2020/12/07 00:44:31;;;;;;;18.82;12.85;;;;;;;6.30;67.32;95498.02;1747446;81;21259;-88
2020/12/07 00:46:57;;;;;;;22.50;15.65;;;;;;;6.18;67.63;95498.63;1734296;81;21107;-88
2020/12/07 00:49:23;;;;;;;22.40;14.35;;;;;;;5.98;67.68;95499.61;1738879;81;21166;-88
2020/12/07 00:51:49;;;;;;;20.45;13.98;;;;;;;5.86;68.30;95497.93;1736616;81;22061;-88
2020/12/07 00:54:16;;;;;;;18.35;12.93;;;;;;;5.86;68.35;95502.28;1746461;81;21146;-88
2020/12/07 00:56:42;;;;;;;14.35;11.18;;;;;;;5.83;68.45;95494.38;1744605;81;21104;-88
2020/12/07 00:59:10;;;;;;;18.92;12.90;;;;;;;5.86;68.44;95502.28;1737576;81;21083;-89
2020/12/07 01:01:37;;;;;;;17.25;12.53;;;;;;;5.85;68.20;95509.19;1787640;78;21125;-88
2020/12/07 01:04:03;;;;;;;16.27;12.18;;;;;;;5.78;68.26;95518.60;1811378;78;21603;-88
2020/12/07 01:06:33;;;;;;;23.77;16.70;;;;;;;5.32;68.18;95495.88;1804235;78;21065;-88
2020/12/07 01:08:59;;;;;;;24.47;16.57;;;;;;;5.26;68.44;95538.59;1799944;78;21105;-87
2020/12/07 01:11:25;;;;;;;19.77;14.13;;;;;;;5.08;68.64;95529.83;1796356;78;21125;-88
2020/12/07 01:13:51;;;;;;;22.02;15.08;;;;;;;4.97;69.07;95531.96;1804043;78;21115;-88
2020/12/07 01:16:19;;;;;;;22.93;14.40;;;;;;;4.90;69.35;95521.55;1795625;78;21961;-88
2020/12/07 01:18:46;;;;;;;18.27;13.55;;;;;;;4.86;69.56;95532.31;1803609;78;21118;-87
2020/12/07 01:21:13;;;;;;;19.52;14.05;;;;;;;4.79;69.67;95521.41;1805300;78;21094;-87
2020/12/07 01:23:40;;;;;;;20.40;13.60;;;;;;;4.74;69.95;95523.70;1803903;78;21110;-88
2020/12/07 01:26:08;;;;;;;16.25;10.75;;;;;;;4.68;70.47;95532.06;1798512;78;21113;-88
2020/12/07 01:28:34;;;;;;;12.35;8.75;;;;;;;4.63;70.70;95529.19;1804826;78;21217;-88
2020/12/07 01:31:00;;;;;;;8.55;6.42;;;;;;;4.62;71.20;95521.64;1801510;79;21101;-88
2020/12/07 01:33:26;;;;;;;10.30;6.08;;;;;;;4.62;71.95;95516.01;1803252;79;21131;-88
2020/12/07 01:35:52;;;;;;;8.30;5.75;;;;;;;4.68;72.20;95514.53;1803649;79;21429;-87
2020/12/07 01:38:19;;;;;;;6.17;4.60;;;;;;;4.80;72.23;95510.15;1735479;80;21126;-88
2020/12/07 01:40:45;;;;;;;6.17;4.87;;;;;;;4.95;72.34;95498.66;1731626;81;21105;-87
2020/12/07 01:43:11;;;;;;;7.20;5.20;;;;;;;5.06;72.47;95489.77;1721004;82;21477;-88
2020/12/07 01:45:37;;;;;;;4.40;3.55;;;;;;;5.18;72.36;95475.52;1760769;80;21109;-88
2020/12/07 01:48:03;;;;;;;5.97;3.80;;;;;;;5.49;72.70;95469.52;1737040;81;21421;-88
2020/12/07 01:50:29;;;;;;;4.35;3.40;;;;;;;5.91;72.36;95475.02;1727101;82;21113;-88
2020/12/07 01:52:55;;;;;;;6.28;4.50;;;;;;;6.45;71.80;95459.81;1728593;82;21089;-88
2020/12/07 01:55:21;;;;;;;5.00;4.45;;;;;;;6.86;71.31;95467.41;1725963;81;21109;-88
2020/12/07 01:57:47;;;;;;;4.17;3.75;;;;;;;6.96;70.23;95461.94;1733229;81;22134;-88
2020/12/07 02:00:13;;;;;;;5.05;4.25;;;;;;;6.92;69.72;95441.34;1738839;81;21223;-88
2020/12/07 02:02:39;;;;;;;4.65;3.67;;;;;;;6.91;69.57;95439.73;1731221;82;21299;-88
2020/12/07 02:05:05;;;;;;;3.70;3.20;;;;;;;7.05;69.54;95428.58;1759080;80;21117;-88
2020/12/07 02:07:31;;;;;;;4.85;4.05;;;;;;;7.50;69.14;95418.88;1749149;81;21267;-88
2020/12/07 02:09:57;;;;;;;3.72;3.10;;;;;;;7.78;67.55;95423.56;1743093;81;21161;-88
2020/12/07 02:12:23;;;;;;;4.47;3.10;;;;;;;8.08;67.60;95402.68;1743166;81;21128;-88
2020/12/07 02:14:49;;;;;;;3.12;2.83;;;;;;;8.24;66.52;95415.31;1739739;81;21110;-88
2020/12/07 02:17:15;;;;;;;4.20;3.22;;;;;;;8.60;66.63;95403.97;1750070;81;21137;-87
2020/12/07 02:19:42;;;;;;;4.10;3.20;;;;;;;8.86;65.71;95401.98;1734427;82;21120;-88
2020/12/07 02:22:08;;;;;;;4.58;3.45;;;;;;;9.16;65.81;95404.56;1759791;81;21255;-88
2020/12/07 02:24:34;;;;;;;3.80;2.75;;;;;;;9.21;64.87;95414.33;1721354;82;22481;-88
2020/12/07 02:27:00;;;;;;;4.03;3.20;;;;;;;9.24;64.63;95412.14;1757808;80;21078;-88
2020/12/07 02:29:29;;;;;;;4.17;3.15;;;;;;;9.29;64.27;95409.78;1744298;81;21117;-88
2020/12/07 02:32:04;;;;;;;5.45;3.25;;;;;;;9.38;64.28;95413.47;1744797;81;21260;-88
2020/12/07 02:34:30;;;;;;;3.00;2.50;;;;;;;9.42;63.90;95435.40;1746660;81;21163;-88
2020/12/07 02:36:57;;;;;;;4.22;3.08;;;;;;;9.48;63.46;95421.16;1704061;84;21147;-88
2020/12/07 02:39:23;;;;;;;4.05;3.33;;;;;;;9.58;63.44;95435.02;1707442;82;21143;-88
2020/12/07 02:41:49;;;;;;;4.90;2.70;;;;;;;9.60;63.68;95437.74;1744711;81;21246;-88
2020/12/07 02:44:15;;;;;;;3.65;3.30;;;;;;;9.63;63.09;95420.48;1746167;81;21130;-88
2020/12/07 02:46:41;;;;;;;3.47;3.12;;;;;;;9.65;63.42;95430.66;1688559;84;21143;-87
2020/12/07 02:49:07;;;;;;;3.70;3.17;;;;;;;9.65;63.06;95425.47;1716112;83;21160;-88
2020/12/07 02:51:33;;;;;;;3.20;2.75;;;;;;;9.58;63.13;95433.23;1708582;83;21390;-88
2020/12/07 02:53:59;;;;;;;3.60;3.22;;;;;;;9.43;63.37;95435.70;1711331;82;21130;-89
2020/12/07 02:56:25;;;;;;;4.20;3.17;;;;;;;9.36;63.43;95424.03;1713212;82;21145;-88
2020/12/07 02:58:51;;;;;;;3.58;2.60;;;;;;;9.27;63.57;95422.61;1714502;82;21126;-88
2020/12/07 03:01:17;;;;;;;4.90;3.05;;;;;;;9.23;63.49;95418.81;1710836;82;21118;-88
2020/12/07 03:03:43;;;;;;;26.05;17.60;;;;;;;9.21;63.62;95442.34;1710820;82;21396;-88
2020/12/07 03:06:09;;;;;;;3.62;3.30;;;;;;;9.23;63.68;95414.93;1694860;83;21114;-89
2020/12/07 03:08:36;;;;;;;4.05;2.90;;;;;;;9.23;63.67;95416.23;1713827;82;21620;-88
2020/12/07 03:11:05;;;;;;;5.15;2.87;;;;;;;9.24;63.24;95407.45;1707511;82;21243;-88
2020/12/07 03:13:31;;;;;;;4.30;3.47;;;;;;;9.21;63.64;95416.42;1706618;82;21146;-88
2020/12/07 03:15:57;;;;;;;4.47;3.10;;;;;;;9.07;63.62;95414.00;1711180;82;21126;-88
2020/12/07 03:18:23;;;;;;;4.80;3.27;;;;;;;8.91;63.99;95413.35;1690913;83;21372;-88
2020/12/07 03:20:49;;;;;;;4.30;3.33;;;;;;;8.73;64.08;95424.25;1713795;82;21142;-88
2020/12/07 03:23:15;;;;;;;4.55;3.17;;;;;;;8.67;64.49;95429.41;1715202;82;21120;-88
2020/12/07 03:25:41;;;;;;;3.70;3.08;;;;;;;8.62;64.52;95441.66;1714908;83;21110;-88
2020/12/07 03:28:07;;;;;;;4.78;3.75;;;;;;;8.64;64.60;95436.28;1711682;83;21151;-89
2020/12/07 03:30:33;;;;;;;3.55;3.25;;;;;;;8.66;64.86;95433.00;1755069;80;21115;-88
2020/12/07 03:32:59;;;;;;;4.50;3.47;;;;;;;8.60;64.92;95444.91;1767050;80;21449;-88
2020/12/07 03:35:25;;;;;;;3.80;3.17;;;;;;;8.53;64.96;95431.14;1772692;80;21114;-88
2020/12/07 03:37:51;;;;;;;4.17;2.87;;;;;;;8.52;65.32;95432.62;1768143;80;21557;-88
2020/12/07 03:40:17;;;;;;;3.55;2.80;;;;;;;8.38;65.43;95415.73;1763697;80;21124;-88
2020/12/07 03:42:44;;;;;;;3.70;3.05;;;;;;;8.47;65.55;95418.17;1760650;80;21509;-88
2020/12/07 03:45:09;;;;;;;4.75;2.80;;;;;;;8.47;65.51;95406.03;1761237;80;21212;-88
2020/12/07 03:47:36;;;;;;;5.03;3.30;;;;;;;8.35;65.56;95407.05;1757023;80;21227;-87
2020/12/07 03:50:02;;;;;;;4.67;3.17;;;;;;;8.25;65.77;95407.86;1759578;80;21334;-88
2020/12/07 03:52:28;;;;;;;3.30;2.90;;;;;;;8.09;65.84;95401.19;1763250;80;21131;-89
2020/12/07 03:54:54;;;;;;;4.33;3.47;;;;;;;8.00;65.98;95396.38;1771284;80;21380;-88
2020/12/07 03:57:20;;;;;;;5.20;3.85;;;;;;;7.91;66.25;95406.55;1765624;80;22255;-88
2020/12/07 03:59:46;;;;;;;14.87;12.18;;;;;;;7.75;66.61;95411.01;1760901;80;21239;-88
2020/12/07 04:02:12;;;;;;;18.85;15.30;;;;;;;7.51;64.50;95416.59;1759553;80;21248;-88
2020/12/07 04:04:47;;;;;;;17.62;14.20;;;;;;;6.71;64.56;95425.31;1766348;80;21412;-88
2020/12/07 04:07:09;;;;;;;18.67;14.23;;;;;;;6.71;64.56;95425.31;1766470;80;21124;-88
2020/12/07 04:09:35;;;;;;;19.17;13.98;;;;;;;6.40;64.76;95429.89;1773836;80;21106;-88
2020/12/07 04:12:01;;;;;;;16.70;13.10;;;;;;;6.20;65.39;95424.47;1745569;80;21108;-88
2020/12/07 04:14:27;;;;;;;17.98;12.78;;;;;;;6.04;65.90;95428.51;1761996;80;21255;-88
2020/12/07 04:16:53;;;;;;;9.65;7.25;;;;;;;5.93;66.69;95420.70;1763438;80;21517;-87
2020/12/07 04:19:19;;;;;;;7.60;5.50;;;;;;;5.86;69.09;95423.16;1769733;80;21110;-88
2020/12/07 04:21:45;;;;;;;6.12;3.72;;;;;;;5.91;68.96;95429.11;1760783;80;21508;-88
2020/12/07 04:24:11;;;;;;;4.37;3.27;;;;;;;5.99;69.38;95432.39;1762176;80;21112;-88
2020/12/07 04:26:37;;;;;;;4.55;3.17;;;;;;;6.12;69.71;95427.92;1767267;80;21108;-88
2020/12/07 04:29:04;;;;;;;5.67;4.00;;;;;;;6.24;70.20;95418.77;1763636;80;21104;-88
2020/12/07 04:31:30;;;;;;;5.25;3.98;;;;;;;6.33;69.79;95415.59;1799835;78;21356;-88
2020/12/07 04:33:56;;;;;;;5.15;3.50;;;;;;;6.50;69.90;95417.49;1799631;78;21125;-88
2020/12/07 04:36:22;;;;;;;4.17;3.77;;;;;;;6.59;70.48;95394.00;1805624;78;21106;-88
2020/12/07 04:38:48;;;;;;;5.55;3.72;;;;;;;6.76;70.17;95387.33;1799736;78;21096;-87
2020/12/07 04:41:15;;;;;;;6.45;3.72;;;;;;;7.00;69.67;95392.66;1800958;78;21136;-88
2020/12/07 04:43:42;;;;;;;9.73;7.62;;;;;;;7.04;69.59;95384.36;1772910;78;21284;-88
2020/12/07 04:46:08;;;;;;;8.63;6.17;;;;;;;7.14;68.39;95387.42;1795527;78;21335;-88
2020/12/07 04:48:35;;;;;;;6.03;5.30;;;;;;;7.18;67.92;95373.17;1799315;78;21110;-87
2020/12/07 04:51:01;;;;;;;12.43;7.92;;;;;;;7.32;68.89;95400.39;1801228;78;21114;-88
2020/12/07 04:53:27;;;;;;;12.73;8.53;;;;;;;7.33;67.17;95392.48;1791720;78;21118;-87
2020/12/07 04:55:56;;;;;;;12.28;8.95;;;;;;;7.24;66.91;95394.88;1798144;78;21137;-88
2020/12/07 04:58:22;;;;;;;10.78;8.65;;;;;;;7.08;66.60;95389.45;1793041;78;21102;-88
2020/12/07 05:00:48;;;;;;;6.55;5.20;;;;;;;6.86;66.83;95386.06;1801599;78;21112;-88
2020/12/07 05:03:14;;;;;;;4.83;3.77;;;;;;;6.85;68.06;95388.84;1794149;78;21117;-89
2020/12/07 05:05:40;;;;;;;4.12;2.40;;;;;;;7.12;68.97;95389.39;1808259;78;21098;-88
2020/12/07 05:08:06;;;;;;;6.60;4.90;;;;;;;7.47;68.81;95383.03;1798810;78;21251;-88
2020/12/07 05:10:38;;;;;;;7.70;5.87;;;;;;;7.80;68.36;95385.38;1802065;78;21108;-88
2020/12/07 05:15:45;;;;;;;9.33;5.95;;;;;;;7.91;66.70;95394.41;1796971;78;23926;-86
2020/12/07 05:18:11;;;;;;;11.00;7.70;;;;;;;7.80;66.29;95387.97;1770892;79;21106;-87
2020/12/07 05:20:37;;;;;;;9.40;7.15;;;;;;;7.72;66.12;95393.78;1771409;79;21121;-87
2020/12/07 05:23:03;;;;;;;9.53;6.90;;;;;;;7.51;66.30;95396.72;1768454;79;21100;-87
2020/12/07 05:25:29;;;;;;;8.50;6.72;;;;;;;7.33;66.37;95390.39;1771329;79;21122;-87
2020/12/07 05:27:58;;;;;;;7.87;6.35;;;;;;;7.25;66.77;95402.93;1774755;79;21118;-87
2020/12/07 05:30:27;;;;;;;8.65;6.72;;;;;;;7.18;66.76;95401.59;1769197;79;21082;-86
2020/12/07 05:32:52;;;;;;;9.00;7.15;;;;;;;7.08;67.12;95414.00;1776873;79;21111;-87
2020/12/07 05:35:18;;;;;;;7.92;6.00;;;;;;;6.98;67.18;95395.41;1785823;79;21137;-89
2020/12/07 05:37:44;;;;;;;8.23;6.10;;;;;;;6.96;67.81;95401.25;1779958;79;21136;-88
2020/12/07 05:40:14;;;;;;;5.15;4.35;;;;;;;6.84;67.69;95410.47;1775430;79;21343;-89
2020/12/07 05:42:41;;;;;;;5.28;4.35;;;;;;;6.88;68.49;95412.99;1768064;79;21134;-89
2020/12/07 05:45:09;;;;;;;9.10;6.58;;;;;;;6.99;67.94;95424.12;1772066;79;21560;-89
2020/12/07 05:47:39;;;;;;;9.33;6.83;;;;;;;7.18;68.15;95424.84;1771072;79;21347;-89
2020/12/07 05:50:09;;;;;;;8.18;5.72;;;;;;;7.16;67.52;95385.48;1774718;79;21515;-89
2020/12/07 05:52:52;;;;;;;5.33;4.35;;;;;;;7.11;68.11;95415.41;1768036;79;21148;-89
2020/12/07 05:55:20;;;;;;;4.97;3.17;;;;;;;7.17;68.49;95406.45;1772831;79;21101;-89
2020/12/07 05:58:05;;;;;;;3.70;2.92;;;;;;;7.52;68.56;95407.85;1769199;79;21112;-89
2020/12/07 06:00:34;;;;;;;3.12;2.70;;;;;;;7.98;68.31;95414.67;1772213;79;21134;-89
2020/12/07 06:03:02;;;;;;;4.78;3.65;;;;;;;8.34;66.97;95417.60;1771955;79;21074;-89
2020/12/07 06:05:28;;;;;;;16.35;12.03;;;;;;;8.66;66.90;95442.06;1768393;79;21168;-89
2020/12/07 06:08:08;;;;;;;17.00;13.68;;;;;;;8.42;63.82;95444.61;1773829;79;21380;-89
2020/12/07 06:10:56;;;;;;;19.23;12.90;;;;;;;7.88;63.50;95452.19;1755635;79;21468;-89
2020/12/07 06:13:27;;;;;;;12.07;10.48;;;;;;;7.35;63.96;95438.81;1778606;79;21124;-89
2020/12/07 06:15:54;;;;;;;16.65;12.07;;;;;;;7.10;65.18;95444.31;1774777;80;21388;-89
2020/12/07 06:18:27;;;;;;;9.38;6.78;;;;;;;7.05;65.86;95441.98;1785742;80;21287;-89
2020/12/07 06:20:58;;;;;;;15.23;10.82;;;;;;;6.99;67.21;95430.58;1762938;80;21124;-89
2020/12/07 06:23:38;;;;;;;16.27;10.40;;;;;;;7.08;67.15;95459.20;1763370;80;21320;-89
2020/12/07 06:26:06;;;;;;;17.62;10.95;;;;;;;7.13;66.99;95459.45;1763912;80;21114;-89
2020/12/07 06:28:40;;;;;;;8.15;6.17;;;;;;;7.16;66.70;95459.10;1761937;80;21118;-89
2020/12/07 06:31:12;;;;;;;17.55;11.28;;;;;;;7.24;68.20;95451.72;1772631;81;21232;-89
2020/12/07 06:33:44;;;;;;;19.80;13.55;;;;;;;7.48;67.04;95468.64;1756515;80;21110;-88
2020/12/07 06:36:37;;;;;;;16.23;12.00;;;;;;;7.39;66.25;95462.00;1770017;80;22095;-88
2020/12/07 06:39:10;;;;;;;11.28;8.80;;;;;;;7.25;66.51;95477.86;1759482;80;21114;-89
2020/12/07 06:41:40;;;;;;;11.08;8.60;;;;;;;7.40;67.36;95458.44;1764576;80;21106;-88
2020/12/07 06:44:10;;;;;;;11.60;8.70;;;;;;;7.44;67.23;95472.58;1731541;82;21108;-87
2020/12/07 06:47:06;;;;;;;69.75;63.38;;;;;;;7.33;66.65;95483.42;1703994;82;21130;-87
2020/12/07 06:52:22;;;;;;;20.30;15.98;;;;;;;7.21;66.52;95481.31;1755353;79;22900;-84
2020/12/07 06:57:50;;;;;;;24.15;16.32;;;;;;;7.06;66.49;95497.33;1769142;79;22889;-84
2020/12/07 07:00:24;;;;;;;21.70;15.18;;;;;;;6.92;66.55;95498.95;1737377;80;21130;-83
2020/12/07 07:02:55;;;;;;;20.60;15.45;;;;;;;6.78;66.72;95498.47;1729241;80;21117;-84
2020/12/07 08:16:58;;;;;;;5.92;4.97;;;;;;;10.12;63.14;95521.80;1785911;78;21133;-85
2020/12/07 08:19:29;;;;;;;6.00;4.55;;;;;;;10.23;63.11;95511.32;1768298;78;21110;-83
2020/12/07 08:21:54;;;;;;;5.87;4.05;;;;;;;10.23;61.92;95530.30;1774500;78;21344;-83
2020/12/07 08:24:20;;;;;;;5.92;4.58;;;;;;;10.32;63.00;95530.11;1772864;78;21221;-83
2020/12/07 08:26:46;;;;;;;5.80;3.92;;;;;;;10.35;62.85;95530.50;1779066;78;21109;-83
2020/12/07 08:29:12;;;;;;;5.22;4.42;;;;;;;10.32;63.09;95541.80;1783202;78;21110;-84
2020/12/07 08:31:39;;;;;;;4.30;3.90;;;;;;;10.27;62.56;95530.72;1769121;78;21118;-84
2020/12/07 08:34:14;;;;;;;5.00;4.22;;;;;;;10.29;62.91;95530.52;1773900;78;21327;-84
2020/12/07 08:36:42;;;;;;;10.63;7.37;;;;;;;10.28;62.77;95532.81;1782255;78;21239;-85
2020/12/07 08:39:08;;;;;;;9.43;6.83;;;;;;;10.17;61.84;95549.74;1786765;78;21161;-84
2020/12/07 08:41:35;;;;;;;14.87;11.22;;;;;;;10.03;60.87;95532.06;1783360;78;21212;-84
2020/12/07 08:44:05;;;;;;;11.75;8.88;;;;;;;9.69;61.52;95542.59;1782130;78;21376;-83
2020/12/07 08:46:33;;;;;;;15.48;10.93;;;;;;;9.55;62.44;95539.16;1766968;78;21129;-84
2020/12/07 08:49:00;;;;;;;9.48;6.85;;;;;;;9.42;62.48;95550.78;1768616;78;21273;-85
2020/12/07 08:51:29;;;;;;;7.22;4.70;;;;;;;9.38;63.17;95562.54;1773051;79;21089;-84
2020/12/07 08:53:57;;;;;;;7.97;7.03;;;;;;;9.46;63.62;95559.30;1777031;78;21453;-83
2020/12/07 08:56:23;;;;;;;7.72;5.65;;;;;;;9.54;64.14;95557.02;1780310;78;21273;-84
2020/12/07 08:58:49;;;;;;;5.80;4.60;;;;;;;9.57;63.42;95547.54;1774894;78;21128;-84
2020/12/07 09:01:19;;;;;;;8.20;5.28;;;;;;;9.66;63.42;95542.98;1769945;79;21105;-85
2020/12/07 09:03:46;;;;;;;5.95;3.52;;;;;;;9.77;63.31;95558.78;1770441;78;21129;-83
2020/12/07 09:06:15;;;;;;;6.12;4.60;;;;;;;9.88;63.14;95572.45;1766692;78;21207;-85
2020/12/07 09:08:41;;;;;;;4.83;3.98;;;;;;;10.01;62.70;95557.41;1786205;78;21141;-84
2020/12/07 09:11:10;;;;;;;4.62;4.00;;;;;;;10.13;62.57;95561.03;1767049;78;21137;-84
2020/12/07 09:13:39;;;;;;;6.80;4.83;;;;;;;10.21;62.57;95564.75;1766888;79;21123;-84
2020/12/07 09:16:10;;;;;;;5.75;4.40;;;;;;;10.29;62.43;95552.58;1737883;80;21268;-84
2020/12/07 09:18:36;;;;;;;7.67;4.20;;;;;;;10.34;60.78;95566.55;1760828;79;21118;-84
2020/12/07 09:21:05;;;;;;;17.90;14.03;;;;;;;10.39;61.62;95547.27;1760048;79;21105;-84
2020/12/07 09:23:32;;;;;;;40.73;27.58;;;;;;;10.32;60.74;95549.58;1765137;79;21120;-84
2020/12/07 09:25:58;;;;;;;48.60;32.45;;;;;;;9.96;59.63;95549.94;1768555;79;21099;-84
2020/12/07 09:28:24;;;;;;;21.70;14.55;;;;;;;9.49;60.64;95564.09;1699550;82;21131;-84
2020/12/07 09:30:50;;;;;;;29.50;21.30;;;;;;;9.27;61.19;95558.23;1753028;79;21114;-85
2020/12/07 09:33:16;;;;;;;20.50;14.47;;;;;;;9.11;62.05;95537.00;1704476;82;21556;-85
2020/12/07 09:35:42;;;;;;;7.58;5.33;;;;;;;8.99;63.42;95582.91;1758191;79;21154;-84
2020/12/07 09:38:09;;;;;;;5.70;4.45;;;;;;;9.22;63.54;95554.59;1788962;79;21123;-85
2020/12/07 09:40:36;;;;;;;4.80;4.03;;;;;;;9.47;63.61;95556.20;1733212;80;21479;-84
2020/12/07 09:43:02;;;;;;;6.60;3.83;;;;;;;9.64;63.31;95558.75;1695483;82;21261;-84
2020/12/07 09:45:30;;;;;;;6.22;3.72;;;;;;;9.80;63.34;95569.27;1749929;79;21115;-84
2020/12/07 09:47:58;;;;;;;4.62;3.58;;;;;;;9.96;63.18;95560.31;1757725;79;21102;-85
2020/12/07 09:50:24;;;;;;;4.10;3.27;;;;;;;10.10;62.58;95565.33;1752871;79;21217;-85
2020/12/07 09:52:50;;;;;;;4.15;3.47;;;;;;;10.23;62.08;95561.45;1738725;79;21118;-84
2020/12/07 09:55:16;;;;;;;4.55;3.80;;;;;;;10.30;61.99;95565.36;1752897;79;21134;-85
2020/12/07 09:57:43;;;;;;;5.45;4.12;;;;;;;10.38;61.56;95566.95;1762290;79;21131;-85
2020/12/07 10:00:09;;;;;;;3.20;2.85;;;;;;;10.41;61.55;95554.86;1707901;82;21362;-85
2020/12/07 10:02:36;;;;;;;4.05;3.15;;;;;;;10.46;61.15;95576.66;1758163;79;21126;-85
2020/12/07 10:05:05;;;;;;;3.37;3.08;;;;;;;10.49;60.79;95565.05;1757018;79;21122;-85
2020/12/07 10:07:31;;;;;;;4.50;3.40;;;;;;;10.50;60.88;95556.27;1769793;80;21443;-85
2020/12/07 10:09:58;;;;;;;5.78;3.80;;;;;;;10.53;61.02;95574.84;1760530;79;21409;-85
2020/12/07 10:12:24;;;;;;;3.10;2.80;;;;;;;10.56;60.59;95561.94;1768979;79;21273;-85
2020/12/07 10:14:51;;;;;;;4.25;3.42;;;;;;;10.58;61.02;95565.16;1767727;79;21115;-85
2020/12/07 10:17:17;;;;;;;3.98;2.85;;;;;;;10.60;61.22;95568.86;1773955;79;21563;-85
2020/12/07 10:19:43;;;;;;;3.52;3.15;;;;;;;10.62;60.84;95557.26;1770996;79;21228;-85
2020/12/07 10:22:09;;;;;;;3.50;2.80;;;;;;;10.62;60.84;95556.46;1763786;80;21250;-85
2020/12/07 10:24:35;;;;;;;4.90;3.77;;;;;;;10.60;60.07;95567.05;1766958;79;21117;-85
2020/12/07 10:27:01;;;;;;;5.03;3.75;;;;;;;10.61;60.61;95566.05;1780676;79;21130;-84
2020/12/07 10:29:27;;;;;;;4.20;3.37;;;;;;;10.63;60.53;95565.85;1773160;79;21114;-84
2020/12/07 10:31:55;;;;;;;4.17;3.25;;;;;;;10.65;60.27;95566.44;1770372;79;21103;-84
2020/12/07 10:34:23;;;;;;;3.62;3.02;;;;;;;10.68;59.71;95566.03;1774085;80;21106;-84
2020/12/07 10:36:50;;;;;;;3.77;2.83;;;;;;;10.69;60.14;95578.82;1767665;79;21150;-85
2020/12/07 10:39:16;;;;;;;5.03;3.83;;;;;;;10.71;60.70;95581.22;1778838;79;21129;-85
2020/12/07 10:41:42;;;;;;;6.33;3.90;;;;;;;10.70;60.25;95576.52;1759267;79;21503;-85
2020/12/07 10:44:08;;;;;;;5.08;3.83;;;;;;;10.70;60.50;95573.13;1782348;79;21253;-85
2020/12/07 10:46:37;;;;;;;4.75;3.90;;;;;;;10.69;60.72;95578.02;1773634;79;21137;-85
2020/12/07 10:49:04;;;;;;;4.67;3.95;;;;;;;10.66;60.82;95582.33;1763915;79;21111;-85
2020/12/07 10:51:30;;;;;;;4.35;3.40;;;;;;;10.63;60.56;95580.94;1758393;79;21110;-84
2020/12/07 10:53:58;;;;;;;5.47;3.50;;;;;;;10.62;60.79;95585.84;1763388;80;21440;-85
2020/12/07 10:56:24;;;;;;;4.25;3.20;;;;;;;10.61;61.00;95576.95;1769259;79;21220;-84
2020/12/07 10:58:50;;;;;;;5.92;3.80;;;;;;;10.61;61.07;95580.34;1711150;82;21144;-85
2020/12/07 11:01:17;;;;;;;4.47;3.30;;;;;;;10.59;60.87;95578.45;1785091;79;21102;-85
2020/12/07 11:03:45;;;;;;;4.30;3.90;;;;;;;10.59;61.43;95588.84;1778724;79;21102;-84
2020/12/07 11:06:28;;;;;;;6.20;4.30;;;;;;;10.58;61.27;95592.94;1763869;79;21114;-85
2020/12/07 11:08:54;;;;;;;5.75;4.17;;;;;;;10.55;61.24;95594.11;1768048;79;21131;-86
2020/12/07 11:11:22;;;;;;;4.85;4.10;;;;;;;10.52;61.63;95586.73;1699305;82;21450;-85
2020/12/07 11:13:48;;;;;;;5.30;4.10;;;;;;;10.51;61.54;95595.52;1776855;79;21134;-85
2020/12/07 11:16:16;;;;;;;6.80;4.58;;;;;;;10.47;61.16;95591.73;1761369;79;21142;-85
2020/12/07 11:18:43;;;;;;;4.87;4.35;;;;;;;10.44;61.42;95586.95;1780682;79;21136;-85
2020/12/07 11:21:15;;;;;;;5.33;4.40;;;;;;;10.40;61.71;95589.12;1776711;79;21110;-86
2020/12/07 11:23:43;;;;;;;;;;;;;;;10.39;61.59;95594.02;1768502;79;21659;-85
2020/12/07 11:26:11;;;;;;;4.00;3.27;;;;;;;10.38;62.03;95587.22;1786077;79;20193;-85
2020/12/07 11:28:38;;;;;;;4.08;3.52;;;;;;;10.34;61.60;95579.54;1782855;80;21106;-84
2020/12/07 11:31:08;;;;;;;3.90;3.22;;;;;;;10.32;61.62;95575.05;1777435;79;21117;-85
2020/12/07 11:33:34;;;;;;;3.72;3.15;;;;;;;10.29;61.56;95576.75;1714118;82;21118;-84
2020/12/07 11:36:02;;;;;;;5.12;3.58;;;;;;;10.28;61.53;95580.34;1723424;82;21144;-85
2020/12/07 11:38:33;;;;;;;3.80;3.47;;;;;;;10.28;61.67;95576.45;1732377;81;21096;-85
2020/12/07 11:43:49;;;;;;;3.95;3.50;;;;;;;10.32;61.98;95570.35;1728421;80;21087;-85
2020/12/07 11:46:12;;;;;;;5.40;3.60;;;;;;;10.32;61.92;95565.16;1728365;80;21134;-85
2020/12/07 11:48:38;;;;;;;5.55;4.15;;;;;;;10.33;62.01;95575.84;1694689;80;21503;-85
2020/12/07 11:51:04;;;;;;;4.10;3.35;;;;;;;10.34;62.13;95570.95;1721674;82;21146;-85
2020/12/07 11:53:30;;;;;;;5.30;3.52;;;;;;;10.33;62.01;95574.05;1723773;80;21098;-85
2020/12/07 11:55:56;;;;;;;5.90;3.62;;;;;;;10.33;61.97;95574.05;1736954;80;21131;-85
2020/12/07 11:58:22;;;;;;;4.62;3.42;;;;;;;10.32;62.00;95565.95;1733841;82;21717;-85
2020/12/07 12:00:48;;;;;;;4.97;3.40;;;;;;;10.33;62.15;95571.45;1739425;80;21118;-84
2020/12/07 12:03:16;;;;;;;4.87;3.72;;;;;;;10.34;61.95;95563.95;1742930;82;21370;-85
2020/12/07 12:05:42;;;;;;;5.55;4.15;;;;;;;10.43;62.34;95577.55;1720835;82;21125;-84
2020/12/07 12:08:08;;;;;;;6.20;4.37;;;;;;;10.43;62.34;95577.55;1721254;80;21142;-84
2020/12/07 12:10:34;;;;;;;4.37;3.70;;;;;;;10.45;62.22;95572.95;1742636;80;21071;-85
2020/12/07 12:13:00;;;;;;;4.12;3.05;;;;;;;10.50;62.12;95574.45;1716786;82;22002;-85
2020/12/07 12:15:26;;;;;;;3.55;2.95;;;;;;;10.55;61.43;95575.93;1677265;83;21108;-85
2020/12/07 12:17:52;;;;;;;4.08;3.10;;;;;;;10.57;61.39;95578.33;1701836;83;21102;-85
2020/12/07 12:20:18;;;;;;;3.05;2.37;;;;;;;10.61;61.11;95583.44;1658917;84;21130;-85
2020/12/07 12:22:44;;;;;;;4.45;3.15;;;;;;;10.62;59.73;95575.95;1686162;84;21117;-86
2020/12/07 12:25:10;;;;;;;4.22;3.33;;;;;;;10.60;60.57;95573.55;1698949;83;21125;-85
2020/12/07 12:27:36;;;;;;;4.53;3.08;;;;;;;10.61;60.93;95579.55;1681319;83;21100;-85
2020/12/07 12:30:02;;;;;;;4.83;3.47;;;;;;;10.59;60.65;95577.16;1719244;82;21769;-85
2020/12/07 12:32:28;;;;;;;6.45;5.22;;;;;;;10.57;60.58;95571.83;1706502;83;21157;-85
2020/12/07 12:34:54;;;;;;;8.35;5.33;;;;;;;10.57;60.71;95577.83;1735056;80;21118;-85
2020/12/07 12:37:21;;;;;;;6.22;4.10;;;;;;;10.55;60.52;95571.23;1750325;79;21110;-85
2020/12/07 12:39:47;;;;;;;5.12;3.87;;;;;;;10.52;60.65;95561.55;1728992;79;21220;-85
2020/12/07 12:42:13;;;;;;;5.03;3.70;;;;;;;10.52;60.76;95564.15;1756433;79;21249;-85
2020/12/07 12:44:39;;;;;;;6.53;4.42;;;;;;;10.50;60.63;95566.16;1681386;83;21386;-85
2020/12/07 12:47:05;;;;;;;3.98;3.08;;;;;;;10.48;61.08;95579.05;1736688;80;21121;-85
2020/12/07 12:49:31;;;;;;;4.55;3.37;;;;;;;10.47;60.72;95576.15;1758523;79;21105;-85
2020/12/07 12:51:57;;;;;;;8.60;5.37;;;;;;;10.43;60.68;95579.66;1749412;79;21086;-85
2020/12/07 12:54:23;;;;;;;4.58;3.40;;;;;;;10.43;60.78;95587.45;1717980;81;21074;-86
2020/12/07 12:56:49;;;;;;;8.00;5.70;;;;;;;10.39;60.68;95575.03;1731290;79;21130;-86
2020/12/07 12:59:15;;;;;;;4.97;4.00;;;;;;;10.37;60.81;95574.44;1733815;79;21320;-86